createdAt,value
2023-06-11T00:01:01.861Z,45.9060
2023-06-11T00:02:04.004Z,45.9000
2023-06-11T00:03:06.263Z,45.9370
2023-06-11T00:04:08.276Z,45.9240
2023-06-11T00:05:10.698Z,45.9490
2023-06-11T00:06:12.347Z,45.9490
2023-06-11T00:07:14.488Z,45.9120
2023-06-11T00:08:16.668Z,45.9300
2023-06-11T00:09:16.575Z,45.9370
2023-06-11T00:10:18.740Z,45.9240
2023-06-11T00:11:20.964Z,45.9300
2023-06-11T00:12:23.167Z,45.9300
2023-06-11T00:13:25.525Z,45.9630
2023-06-11T00:14:27.587Z,45.9630
2023-06-11T00:15:29.799Z,45.9240
2023-06-11T00:16:32.017Z,45.9300
2023-06-11T00:17:34.259Z,45.9430
2023-06-11T00:18:36.473Z,45.9300
2023-06-11T00:19:38.681Z,45.9240
2023-06-11T00:20:40.883Z,45.9300
2023-06-11T00:21:43.104Z,45.9300
2023-06-11T00:22:45.314Z,45.9300
2023-06-11T00:23:47.598Z,45.9180
2023-06-11T00:24:47.593Z,45.9240
2023-06-11T00:25:51.573Z,45.9240
2023-06-11T00:26:51.998Z,45.9280
2023-06-11T00:27:54.198Z,45.9300
2023-06-11T00:28:56.397Z,45.9240
2023-06-11T00:29:58.564Z,45.9180
2023-06-11T00:31:00.697Z,45.9060
2023-06-11T00:32:02.866Z,45.8860
2023-06-11T00:33:04.993Z,45.8800
2023-06-11T00:34:07.186Z,45.8860
2023-06-11T00:35:09.761Z,45.8800
2023-06-11T00:36:11.562Z,45.8960
2023-06-11T00:37:13.767Z,45.8900
2023-06-11T00:38:17.713Z,45.8720
2023-06-11T00:39:18.169Z,45.9020
2023-06-11T00:40:20.307Z,45.8660
2023-06-11T00:41:22.535Z,45.8520
2023-06-11T00:42:24.686Z,45.8600
2023-06-11T00:43:26.843Z,45.8520
2023-06-11T00:44:29.101Z,45.8720
2023-06-11T00:45:31.251Z,45.8460
2023-06-11T00:46:31.332Z,45.8520
2023-06-11T00:47:33.483Z,45.8340
2023-06-11T00:48:35.625Z,45.8400
2023-06-11T00:49:37.866Z,45.8400
2023-06-11T00:50:39.958Z,45.8460
2023-06-11T00:51:42.117Z,45.8280
2023-06-11T00:52:44.310Z,45.8600
2023-06-11T00:53:46.490Z,45.8220
2023-06-11T00:54:48.712Z,45.8220
2023-06-11T00:55:50.882Z,45.8280
2023-06-11T00:56:53.120Z,45.7980
2023-06-11T00:57:55.285Z,45.8160
2023-06-11T00:58:57.556Z,45.7840
2023-06-11T00:59:59.731Z,45.8040
2023-06-11T01:01:01.944Z,45.7920
2023-06-11T01:02:04.086Z,45.7980
2023-06-11T01:03:06.370Z,45.7780
2023-06-11T01:04:08.481Z,45.7600
2023-06-11T01:05:10.928Z,45.7600
2023-06-11T01:06:12.963Z,45.7540
2023-06-11T01:07:15.047Z,45.7360
2023-06-11T01:08:15.122Z,45.7360
2023-06-11T01:09:17.296Z,45.7090
2023-06-11T01:10:19.683Z,45.6970
2023-06-11T01:11:21.694Z,45.7030
2023-06-11T01:12:23.943Z,45.6730
2023-06-11T01:13:26.116Z,45.6670
2023-06-11T01:14:28.274Z,45.6790
2023-06-11T01:15:30.635Z,45.6910
2023-06-11T01:16:32.748Z,45.6730
2023-06-11T01:17:35.010Z,45.6730
2023-06-11T01:18:37.236Z,45.6730
2023-06-11T01:19:39.442Z,45.6850
2023-06-11T01:20:41.733Z,45.6470
2023-06-11T01:21:43.988Z,45.6610
2023-06-11T01:22:44.052Z,45.6410
2023-06-11T01:23:46.348Z,45.6290
2023-06-11T01:24:48.511Z,45.6170
2023-06-11T01:25:50.784Z,45.6410
2023-06-11T01:26:52.921Z,45.6230
2023-06-11T01:27:55.138Z,45.6050
2023-06-11T01:28:57.358Z,45.6170
2023-06-11T01:29:59.553Z,45.6290
2023-06-11T01:31:01.930Z,45.6110
2023-06-11T01:32:04.011Z,45.6050
2023-06-11T01:33:06.257Z,45.6110
2023-06-11T01:34:08.422Z,45.5990
2023-06-11T01:35:10.949Z,45.5930
2023-06-11T01:36:10.792Z,45.5930
2023-06-11T01:37:12.995Z,45.5850
2023-06-11T01:38:15.221Z,45.5730
2023-06-11T01:39:17.504Z,45.5850
2023-06-11T01:40:19.708Z,45.5730
2023-06-11T01:41:21.977Z,45.5710
2023-06-11T01:42:24.147Z,45.5590
2023-06-11T01:43:26.368Z,45.5650
2023-06-11T01:44:28.613Z,45.5790
2023-06-11T01:45:30.824Z,45.5650
2023-06-11T01:46:33.108Z,45.5830
2023-06-11T01:47:33.123Z,45.5790
2023-06-11T01:48:35.326Z,45.5590
2023-06-11T01:49:37.549Z,45.5670
2023-06-11T01:50:39.745Z,45.5650
2023-06-11T01:51:42.049Z,45.5650
2023-06-11T01:52:44.170Z,45.5490
2023-06-11T01:53:46.355Z,45.5550
2023-06-11T01:54:48.584Z,45.5550
2023-06-11T01:55:50.760Z,45.5730
2023-06-11T01:56:53.072Z,45.5670
2023-06-11T01:57:55.227Z,45.5670
2023-06-11T01:58:57.442Z,45.5730
2023-06-11T01:59:59.693Z,45.5850
2023-06-11T02:01:01.906Z,45.5930
2023-06-11T02:02:04.172Z,45.5850
2023-06-11T02:03:04.242Z,45.5850
2023-06-11T02:05:31.115Z,45.9290
2023-06-11T02:06:33.269Z,45.9920
2023-06-11T02:07:35.414Z,46.0700
2023-06-11T02:08:37.578Z,46.1110
2023-06-11T02:09:39.727Z,46.1170
2023-06-11T02:10:41.904Z,46.1390
2023-06-11T02:11:44.074Z,46.1570
2023-06-11T02:12:44.161Z,46.1570
2023-06-11T02:13:46.270Z,46.1680
2023-06-11T02:14:48.476Z,46.1740
2023-06-11T02:15:50.637Z,46.1740
2023-06-11T02:16:52.907Z,46.1740
2023-06-11T02:17:55.106Z,46.1740
2023-06-11T02:18:57.242Z,46.1740
2023-06-11T02:19:59.360Z,46.1860
2023-06-11T02:21:01.549Z,46.1800
2023-06-11T02:22:03.663Z,46.1800
2023-06-11T02:23:05.825Z,46.1800
2023-06-11T02:24:08.035Z,46.1860
2023-06-11T02:25:10.473Z,46.1740
2023-06-11T02:26:12.299Z,46.1740
2023-06-11T02:27:14.475Z,46.1800
2023-06-11T02:28:16.646Z,46.1740
2023-06-11T02:29:18.757Z,46.1620
2023-06-11T02:30:20.938Z,46.1560
2023-06-11T02:31:23.152Z,46.1500
2023-06-11T02:32:25.409Z,46.1740
2023-06-11T02:33:27.525Z,46.1680
2023-06-11T02:34:29.706Z,46.1500
2023-06-11T02:35:31.936Z,46.1680
2023-06-11T02:36:34.134Z,46.1800
2023-06-11T02:37:36.352Z,46.1500
2023-06-11T02:38:38.607Z,46.1560
2023-06-11T02:39:40.822Z,46.1680
2023-06-11T02:40:43.019Z,46.1560
2023-06-11T02:41:45.203Z,46.1500
2023-06-11T02:42:47.392Z,46.1680
2023-06-11T02:43:49.635Z,46.1560
2023-06-11T02:44:51.762Z,46.1620
2023-06-11T02:45:53.984Z,46.1380
2023-06-11T02:46:56.167Z,46.1300
2023-06-11T02:47:58.428Z,46.1380
2023-06-11T02:49:00.560Z,46.1380
2023-06-11T02:50:02.713Z,46.1300
2023-06-11T02:51:04.901Z,46.1180
2023-06-11T02:52:07.090Z,46.1240
2023-06-11T02:53:09.268Z,46.1240
2023-06-11T02:54:11.539Z,46.1120
2023-06-11T02:55:13.777Z,46.1050
2023-06-11T02:56:15.814Z,46.1180
2023-06-11T02:57:17.987Z,46.1050
2023-06-11T02:58:20.142Z,46.1120
2023-06-11T02:59:23.312Z,46.0870
2023-06-11T03:00:24.436Z,46.0990
2023-06-11T03:01:26.554Z,46.0990
2023-06-11T03:02:28.737Z,46.1050
2023-06-11T03:03:30.854Z,46.0990
2023-06-11T03:04:33.023Z,46.1050
2023-06-11T03:05:35.181Z,46.0930
2023-06-11T03:06:37.331Z,46.1050
2023-06-11T03:07:39.497Z,46.1050
2023-06-11T03:08:41.696Z,46.1050
2023-06-11T03:09:43.886Z,46.0990
2023-06-11T03:10:46.046Z,46.0750
2023-06-11T03:11:48.247Z,46.0750
2023-06-11T03:12:50.467Z,46.0810
2023-06-11T03:13:52.676Z,46.0810
2023-06-11T03:14:54.943Z,46.0750
2023-06-11T03:15:57.159Z,46.0750
2023-06-11T03:16:59.291Z,46.0550
2023-06-11T03:17:59.373Z,46.0750
2023-06-11T03:19:01.593Z,46.0690
2023-06-11T03:20:03.853Z,46.0810
2023-06-11T03:21:05.989Z,46.0690
2023-06-11T03:22:08.274Z,46.0610
2023-06-11T03:23:08.320Z,46.0550
2023-06-11T03:24:10.606Z,46.0610
2023-06-11T03:25:13.139Z,46.0430
2023-06-11T03:26:15.071Z,46.0610
2023-06-11T03:27:17.306Z,46.0430
2023-06-11T03:28:19.515Z,46.0490
2023-06-11T03:29:21.731Z,46.0370
2023-06-11T03:30:23.965Z,46.0310
2023-06-11T03:31:26.148Z,46.0310
2023-06-11T03:32:26.166Z,46.0250
2023-06-11T03:33:28.365Z,46.0190
2023-06-11T03:34:30.494Z,46.0310
2023-06-11T03:35:32.799Z,46.0250
2023-06-11T03:36:34.778Z,46.0250
2023-06-11T03:37:36.899Z,46.0310
2023-06-11T03:38:39.061Z,46.0370
2023-06-11T03:39:41.220Z,46.0250
2023-06-11T03:40:43.406Z,46.0490
2023-06-11T03:41:45.550Z,46.0250
2023-06-11T03:42:47.684Z,46.0310
2023-06-11T03:43:49.839Z,46.0070
2023-06-11T03:44:51.980Z,46.0190
2023-06-11T03:45:54.229Z,46.0130
2023-06-11T03:46:56.381Z,45.9930
2023-06-11T03:47:58.528Z,46.0010
2023-06-11T03:49:00.607Z,46.0010
2023-06-11T03:50:02.767Z,46.0010
2023-06-11T03:51:04.934Z,46.0070
2023-06-11T03:52:07.091Z,46.0010
2023-06-11T03:53:09.273Z,45.9870
2023-06-11T03:54:11.498Z,45.9690
2023-06-11T03:55:13.780Z,45.9750
2023-06-11T03:56:15.816Z,45.9570
2023-06-11T03:57:17.946Z,45.9570
2023-06-11T03:58:20.136Z,45.9510
2023-06-11T03:59:22.255Z,45.9630
2023-06-11T04:00:24.426Z,45.9690
2023-06-11T04:01:26.642Z,45.9570
2023-06-11T04:02:28.785Z,45.9570
2023-06-11T04:03:30.958Z,45.9570
2023-06-11T04:04:33.038Z,45.9570
2023-06-11T04:05:35.098Z,45.9510
2023-06-11T04:06:37.260Z,45.9570
2023-06-11T04:07:39.352Z,45.9450
2023-06-11T04:08:41.527Z,45.9320
2023-06-11T04:09:43.659Z,45.9450
2023-06-11T04:10:43.784Z,45.9320
2023-06-11T04:11:45.895Z,45.9250
2023-06-11T04:12:48.084Z,45.9060
2023-06-11T04:13:50.237Z,45.8140
2023-06-11T04:14:52.372Z,45.7580
2023-06-11T04:15:54.534Z,45.7130
2023-06-11T04:16:56.801Z,45.6350
2023-06-11T04:17:58.931Z,45.5860
2023-06-11T04:19:00.999Z,45.5610
2023-06-11T04:20:03.153Z,45.5480
2023-06-11T04:21:05.322Z,45.5240
2023-06-11T04:22:07.500Z,45.4860
2023-06-11T04:23:09.628Z,45.5030
2023-06-11T04:24:11.848Z,45.4970
2023-06-11T04:25:14.182Z,45.3040
2023-06-11T04:26:16.158Z,45.2530
2023-06-11T04:27:18.401Z,45.4670
2023-06-11T04:28:20.599Z,45.7790
2023-06-11T04:29:22.824Z,46.1190
2023-06-11T04:30:25.052Z,46.4950
2023-06-11T04:31:27.321Z,46.7990
2023-06-11T04:32:27.567Z,47.1360
2023-06-11T04:33:29.646Z,47.4930
2023-06-11T04:34:31.890Z,47.9270
2023-06-11T04:35:34.126Z,48.2400
2023-06-11T04:37:33.337Z,48.6510
2023-06-11T04:38:34.486Z,48.3150
2023-06-11T04:39:36.673Z,48.3480
2023-06-11T04:40:38.901Z,48.3150
2023-06-11T04:41:41.098Z,48.3210
2023-06-11T04:42:43.343Z,48.3910
2023-06-11T04:43:45.515Z,48.5530
2023-06-11T04:44:47.674Z,48.7200
2023-06-11T04:45:49.907Z,48.7710
2023-06-11T04:46:52.236Z,48.8140
2023-06-11T04:47:52.447Z,48.8610
2023-06-11T04:48:54.551Z,48.9420
2023-06-11T04:49:56.657Z,49.2710
2023-06-11T04:50:58.895Z,49.3600
2023-06-11T04:52:01.041Z,49.3960
2023-06-11T04:53:03.316Z,49.8570
2023-06-11T04:54:05.456Z,49.9440
2023-06-11T04:55:07.762Z,49.9440
2023-06-11T04:56:09.890Z,50.1300
2023-06-11T04:57:12.097Z,50.3770
2023-06-11T04:58:14.308Z,50.4940
2023-06-11T04:59:16.503Z,50.4020
2023-06-11T05:00:18.661Z,50.5480
2023-06-11T05:01:20.869Z,50.5200
2023-06-11T05:02:23.169Z,50.4520
2023-06-11T05:03:25.360Z,50.4640
2023-06-11T05:04:27.523Z,50.3660
2023-06-11T05:05:27.590Z,50.4050
2023-06-11T05:06:29.774Z,50.5190
2023-06-11T05:07:31.988Z,50.5500
2023-06-11T05:08:34.249Z,50.5950
2023-06-11T05:09:36.407Z,50.6460
2023-06-11T05:10:38.694Z,50.8260
2023-06-11T05:11:40.799Z,50.8320
2023-06-11T05:12:43.030Z,50.8250
2023-06-11T05:13:45.254Z,50.8580
2023-06-11T05:14:47.425Z,50.9120
2023-06-11T05:15:49.659Z,50.8960
2023-06-11T05:16:51.843Z,51.0220
2023-06-11T05:17:56.373Z,50.9660
2023-06-11T05:18:56.261Z,51.1350
2023-06-11T05:19:58.413Z,51.1130
2023-06-11T05:21:00.620Z,51.1130
2023-06-11T05:22:02.825Z,51.3200
2023-06-11T05:23:02.879Z,51.4710
2023-06-11T05:24:05.170Z,51.3490
2023-06-11T05:25:07.307Z,51.4000
2023-06-11T05:26:09.486Z,51.4960
2023-06-11T05:27:11.634Z,51.5080
2023-06-11T05:28:13.808Z,51.6490
2023-06-11T05:29:16.001Z,51.6590
2023-06-11T05:30:18.209Z,51.6180
2023-06-11T05:31:20.448Z,51.6560
2023-06-11T05:32:22.669Z,51.7140
2023-06-11T05:33:24.757Z,51.7720
2023-06-11T05:34:27.065Z,51.7550
2023-06-11T05:35:29.159Z,51.6020
2023-06-11T05:36:31.389Z,51.5850
2023-06-11T05:37:33.571Z,51.7780
2023-06-11T05:38:35.752Z,51.6850
2023-06-11T05:39:38.021Z,51.7850
2023-06-11T05:40:40.224Z,51.8840
2023-06-11T05:41:40.310Z,51.8450
2023-06-11T05:42:42.503Z,51.9690
2023-06-11T05:43:44.689Z,51.8450
2023-06-11T05:44:46.981Z,51.9280
2023-06-11T05:45:49.209Z,52.0130
2023-06-11T05:46:51.680Z,52.0920
2023-06-11T05:47:53.745Z,52.1020
2023-06-11T05:48:55.862Z,52.2640
2023-06-11T05:49:58.133Z,52.2000
2023-06-11T05:51:00.337Z,52.2520
2023-06-11T05:52:02.631Z,52.2000
2023-06-11T05:53:02.789Z,52.1460
2023-06-11T05:54:05.042Z,52.1170
2023-06-11T05:55:07.383Z,52.2360
2023-06-11T05:56:09.570Z,52.2520
2023-06-11T05:57:11.823Z,52.4120
2023-06-11T05:58:14.065Z,52.4250
2023-06-11T05:59:16.306Z,52.5020
2023-06-11T06:00:18.564Z,52.4770
2023-06-11T06:01:20.737Z,52.5080
2023-06-11T06:02:23.119Z,52.4190
2023-06-11T06:03:23.236Z,52.2820
2023-06-11T06:04:25.268Z,52.3860
2023-06-11T06:05:27.512Z,52.3090
2023-06-11T06:06:29.734Z,52.2760
2023-06-11T06:07:31.945Z,52.0910
2023-06-11T06:08:34.128Z,51.9250
2023-06-11T06:09:35.010Z,51.7340
2023-06-11T06:10:37.484Z,51.7230
2023-06-11T06:11:39.623Z,51.7250
2023-06-11T06:12:41.771Z,51.5720
2023-06-11T06:13:43.982Z,51.4350
2023-06-11T06:14:46.235Z,51.3230
2023-06-11T06:15:48.557Z,51.1930
2023-06-11T06:16:50.810Z,51.0690
2023-06-11T06:17:52.992Z,50.9230
2023-06-11T06:18:55.184Z,50.7870
2023-06-11T06:19:57.412Z,50.7000
2023-06-11T06:20:57.536Z,50.5410
2023-06-11T06:21:59.744Z,50.4690
2023-06-11T06:23:02.038Z,50.3400
2023-06-11T06:24:04.351Z,50.2880
2023-06-11T06:25:04.454Z,50.3280
2023-06-11T06:26:06.948Z,50.1610
2023-06-11T06:27:08.966Z,50.1470
2023-06-11T06:28:11.253Z,50.0580
2023-06-11T06:29:11.355Z,50.0380
2023-06-11T06:30:13.609Z,49.9970
2023-06-11T06:31:15.892Z,49.9210
2023-06-11T06:32:18.114Z,49.8940
2023-06-11T06:33:20.299Z,49.8180
2023-06-11T06:34:20.319Z,49.8620
2023-06-11T06:35:22.497Z,49.7980
2023-06-11T06:36:24.781Z,49.7840
2023-06-11T06:37:26.882Z,49.7140
2023-06-11T06:38:29.110Z,49.7290
2023-06-11T06:39:29.203Z,49.6600
2023-06-11T06:40:31.444Z,49.6600
2023-06-11T06:41:33.669Z,49.6380
2023-06-11T06:42:35.878Z,49.5910
2023-06-11T06:43:38.129Z,49.5560
2023-06-11T06:44:38.238Z,49.5750
2023-06-11T06:45:40.491Z,49.5690
2023-06-11T06:46:42.843Z,49.5930
2023-06-11T06:47:45.002Z,49.4890
2023-06-11T06:48:47.266Z,49.3760
2023-06-11T06:49:49.349Z,49.3190
2023-06-11T06:50:51.607Z,49.3370
2023-06-11T06:51:53.980Z,49.3700
2023-06-11T06:52:56.062Z,49.3170
2023-06-11T06:53:58.288Z,49.2880
2023-06-11T06:55:00.521Z,49.2000
2023-06-11T06:56:02.760Z,49.1570
2023-06-11T06:57:05.000Z,49.1550
2023-06-11T06:58:05.135Z,49.1490
2023-06-11T06:59:07.344Z,49.1840
2023-06-11T07:00:09.904Z,49.1650
2023-06-11T07:01:11.814Z,49.1960
2023-06-11T07:02:14.069Z,49.0690
2023-06-11T07:03:16.274Z,49.1100
2023-06-11T07:04:18.505Z,49.0610
2023-06-11T07:05:20.851Z,49.0220
2023-06-11T07:06:22.987Z,49.0730
2023-06-11T07:07:25.376Z,49.0490
2023-06-11T07:08:27.455Z,49.0610
2023-06-11T07:09:29.696Z,49.0100
2023-06-11T07:10:31.947Z,48.9920
2023-06-11T07:11:34.194Z,48.9570
2023-06-11T07:12:36.471Z,48.9630
2023-06-11T07:13:38.664Z,48.9180
2023-06-11T07:14:40.917Z,48.9000
2023-06-11T07:15:43.179Z,48.8870
2023-06-11T07:16:45.416Z,48.8750
2023-06-11T07:17:47.843Z,48.8660
2023-06-11T07:18:47.821Z,48.8530
2023-06-11T07:19:50.073Z,48.9230
2023-06-11T07:20:52.343Z,48.8020
2023-06-11T07:21:54.633Z,48.7880
2023-06-11T07:22:54.826Z,48.7610
2023-06-11T07:23:57.090Z,48.7820
2023-06-11T07:24:59.300Z,48.7250
2023-06-11T07:26:01.588Z,48.7820
2023-06-11T07:27:01.687Z,48.7560
2023-06-11T07:28:04.034Z,48.7560
2023-06-11T07:29:06.273Z,48.7500
2023-06-11T07:30:08.798Z,48.6370
2023-06-11T07:31:08.777Z,48.6680
2023-06-11T07:32:11.001Z,48.6620
2023-06-11T07:33:13.406Z,48.6680
2023-06-11T07:34:15.532Z,48.7210
2023-06-11T07:35:15.672Z,48.6720
2023-06-11T07:36:17.965Z,48.5760
2023-06-11T07:37:20.270Z,48.6090
2023-06-11T07:38:22.564Z,48.6020
2023-06-11T07:39:22.567Z,48.6390
2023-06-11T07:40:24.812Z,48.5640
2023-06-11T07:41:27.011Z,48.5920
2023-06-11T07:42:29.225Z,48.5620
2023-06-11T07:43:31.509Z,48.5820
2023-06-11T07:44:33.719Z,48.5820
2023-06-11T07:45:35.957Z,48.5640
2023-06-11T07:46:38.297Z,48.5110
2023-06-11T07:47:40.426Z,48.5290
2023-06-11T07:48:40.411Z,48.4860
2023-06-11T07:49:42.548Z,48.4720
2023-06-11T07:50:44.727Z,48.4580
2023-06-11T07:51:46.927Z,48.4460
2023-06-11T07:52:49.145Z,48.4520
2023-06-11T07:53:51.386Z,48.4250
2023-06-11T07:54:53.550Z,48.4250
2023-06-11T07:55:55.750Z,48.4130
2023-06-11T07:56:57.936Z,48.4010
2023-06-11T07:58:00.163Z,48.4130
2023-06-11T07:59:02.497Z,48.4010
2023-06-11T08:00:04.617Z,48.3950
2023-06-11T08:01:06.852Z,48.4130
2023-06-11T08:02:09.112Z,48.3890
2023-06-11T08:03:11.385Z,48.3380
2023-06-11T08:04:13.617Z,48.3590
2023-06-11T08:05:15.806Z,48.3020
2023-06-11T08:06:18.133Z,48.3080
2023-06-11T08:07:20.273Z,48.2750
2023-06-11T08:08:22.502Z,48.2960
2023-06-11T08:09:24.737Z,48.3140
2023-06-11T08:10:26.928Z,48.3180
2023-06-11T08:11:29.116Z,48.2790
2023-06-11T08:12:31.303Z,48.2980
2023-06-11T08:13:33.509Z,48.3180
2023-06-11T08:14:35.714Z,48.3360
2023-06-11T08:15:37.921Z,48.3180
2023-06-11T08:16:40.152Z,48.3240
2023-06-11T08:17:42.286Z,48.3730
2023-06-11T08:18:33.389Z,48.3180
2023-06-11T08:19:36.033Z,48.1540
2023-06-11T08:20:38.207Z,47.9920
2023-06-11T08:21:40.369Z,47.8800
2023-06-11T08:22:42.621Z,47.8410
2023-06-11T08:23:44.822Z,47.7130
2023-06-11T08:24:44.871Z,47.7770
2023-06-11T08:25:47.053Z,47.7040
2023-06-11T08:26:49.153Z,47.6570
2023-06-11T08:27:51.287Z,47.6090
2023-06-11T08:28:53.409Z,47.6170
2023-06-11T08:29:55.568Z,47.6620
2023-06-11T08:30:57.754Z,47.6230
2023-06-11T08:31:59.923Z,47.5800
2023-06-11T08:33:02.050Z,47.5540
2023-06-11T08:34:04.190Z,47.6230
2023-06-11T08:35:06.352Z,47.6840
2023-06-11T08:36:06.442Z,47.5830
2023-06-11T08:37:08.572Z,47.5760
2023-06-11T08:38:10.738Z,47.5760
2023-06-11T08:39:12.869Z,47.6270
2023-06-11T08:40:15.110Z,47.5640
2023-06-11T08:41:17.294Z,47.5640
2023-06-11T08:42:19.423Z,47.5890
2023-06-11T08:43:21.586Z,47.4830
2023-06-11T08:44:26.204Z,47.5520
2023-06-11T08:45:25.995Z,47.4890
2023-06-11T08:46:28.330Z,47.5010
2023-06-11T08:47:30.388Z,47.5280
2023-06-11T08:48:30.448Z,47.5280
2023-06-11T08:49:32.615Z,47.5400
2023-06-11T08:50:34.839Z,47.4950
2023-06-11T08:51:37.020Z,47.5280
2023-06-11T08:52:39.156Z,47.5580
2023-06-11T08:53:41.411Z,47.5580
2023-06-11T08:54:43.615Z,47.5050
2023-06-11T08:55:45.865Z,47.5360
2023-06-11T08:56:48.115Z,47.5680
2023-06-11T08:57:50.339Z,47.5240
2023-06-11T08:58:52.500Z,47.5680
2023-06-11T08:59:54.605Z,47.5480
2023-06-11T09:00:56.742Z,47.5340
2023-06-11T09:01:56.784Z,47.5280
2023-06-11T09:02:58.945Z,47.4710
2023-06-11T09:04:01.173Z,47.4930
2023-06-11T09:05:03.175Z,47.4510
2023-06-11T09:06:05.342Z,47.4890
2023-06-11T09:07:07.503Z,47.4650
2023-06-11T09:08:09.605Z,47.4830
2023-06-11T09:09:11.742Z,47.4890
2023-06-11T09:10:14.158Z,47.4510
2023-06-11T09:11:16.185Z,47.4200
2023-06-11T09:12:18.320Z,47.4300
2023-06-11T09:13:20.554Z,47.4550
2023-06-11T09:14:22.828Z,47.4200
2023-06-11T09:15:22.917Z,47.4590
2023-06-11T09:16:25.182Z,47.4140
2023-06-11T09:17:27.502Z,47.4650
2023-06-11T09:18:29.673Z,47.5140
2023-06-11T09:19:31.953Z,47.4500
2023-06-11T09:20:34.253Z,47.4310
2023-06-11T09:21:36.522Z,47.4250
2023-06-11T09:22:38.805Z,47.4560
2023-06-11T09:23:38.917Z,47.4250
2023-06-11T09:24:41.141Z,47.3990
2023-06-11T09:25:43.393Z,47.4620
2023-06-11T09:26:45.704Z,47.4370
2023-06-11T09:27:48.137Z,47.4440
2023-06-11T09:28:50.505Z,47.4500
2023-06-11T09:29:52.239Z,47.3990
2023-06-11T09:30:54.497Z,47.3930
2023-06-11T09:31:56.765Z,47.4210
2023-06-11T09:32:59.062Z,47.3640
2023-06-11T09:33:59.090Z,47.3790
2023-06-11T09:35:01.351Z,47.3790
2023-06-11T09:36:03.597Z,47.3790
2023-06-11T09:37:05.860Z,47.3970
2023-06-11T09:38:08.135Z,47.3750
2023-06-11T09:39:10.363Z,47.3870
2023-06-11T09:40:12.741Z,47.3810
2023-06-11T09:41:16.021Z,47.3810
2023-06-11T09:42:16.995Z,47.4540
2023-06-11T09:43:19.150Z,47.3990
2023-06-11T09:44:21.298Z,47.4050
2023-06-11T09:45:23.488Z,47.3440
2023-06-11T09:46:25.720Z,47.3340
2023-06-11T09:47:27.891Z,47.3400
2023-06-11T09:48:30.082Z,47.3730
2023-06-11T09:49:32.253Z,47.3300
2023-06-11T09:50:32.285Z,47.2940
2023-06-11T09:51:34.492Z,47.3380
2023-06-11T09:52:36.702Z,47.2940
2023-06-11T09:53:39.033Z,47.3300
2023-06-11T09:54:41.098Z,47.3630
2023-06-11T09:55:48.556Z,47.3440
2023-06-11T09:56:45.503Z,47.3380
2023-06-11T09:57:47.727Z,47.3810
2023-06-11T09:58:49.963Z,47.3650
2023-06-11T09:59:52.167Z,47.3040
2023-06-11T10:00:54.331Z,47.3220
2023-06-11T10:01:56.496Z,47.3400
2023-06-11T10:02:58.747Z,47.3730
2023-06-11T10:04:00.938Z,47.3460
2023-06-11T10:05:03.139Z,47.3650
2023-06-11T10:06:05.372Z,47.3730
2023-06-11T10:07:07.565Z,47.3650
2023-06-11T10:08:09.741Z,47.3460
2023-06-11T10:09:11.905Z,47.3160
2023-06-11T10:10:14.070Z,47.3400
2023-06-11T10:11:16.226Z,47.3530
2023-06-11T10:12:18.400Z,47.3280
2023-06-11T10:13:20.587Z,47.2710
2023-06-11T10:14:22.797Z,47.2590
2023-06-11T10:15:24.899Z,47.2780
2023-06-11T10:16:27.232Z,47.3040
2023-06-11T10:17:29.302Z,47.2710
2023-06-11T10:18:31.444Z,47.2650
2023-06-11T10:19:33.615Z,47.2940
2023-06-11T10:20:35.765Z,47.3120
2023-06-11T10:21:37.979Z,47.3060
2023-06-11T10:22:40.101Z,47.2940
2023-06-11T10:23:42.446Z,47.2880
2023-06-11T10:24:44.646Z,47.2940
2023-06-11T10:25:46.699Z,47.2480
2023-06-11T10:26:46.791Z,47.3000
2023-06-11T10:27:48.994Z,47.2880
2023-06-11T10:28:49.103Z,47.2540
2023-06-11T10:29:51.307Z,47.2160
2023-06-11T10:30:53.457Z,47.2540
2023-06-11T10:31:55.638Z,47.2600
2023-06-11T10:32:57.949Z,47.2160
2023-06-11T10:34:00.043Z,47.2480
2023-06-11T10:35:02.281Z,47.2360
2023-06-11T10:36:04.311Z,47.2600
2023-06-11T10:37:06.545Z,47.2850
2023-06-11T10:38:08.839Z,47.2790
2023-06-11T10:39:10.973Z,47.3230
2023-06-11T10:40:13.798Z,47.3230
2023-06-11T10:41:15.421Z,47.3050
2023-06-11T10:42:17.660Z,47.3170
2023-06-11T10:43:19.880Z,47.3350
2023-06-11T10:44:19.990Z,47.3350
2023-06-11T10:45:22.270Z,47.2830
2023-06-11T10:46:24.520Z,47.2850
2023-06-11T10:47:26.873Z,47.3510
2023-06-11T10:48:28.974Z,47.3130
2023-06-11T10:49:31.298Z,47.3190
2023-06-11T10:51:44.362Z,47.3740
2023-06-11T10:52:46.438Z,47.3110
2023-06-11T10:53:48.550Z,47.4230
2023-06-11T10:54:49.602Z,47.3760
2023-06-11T10:55:50.746Z,47.4020
2023-06-11T10:56:53.028Z,47.3760
2023-06-11T10:57:55.095Z,47.3330
2023-06-11T10:58:57.343Z,47.2830
2023-06-11T10:59:59.571Z,47.3270
2023-06-11T11:01:01.747Z,47.3130
2023-06-11T11:02:04.138Z,47.3640
2023-06-11T11:03:06.277Z,47.4140
2023-06-11T11:04:06.303Z,47.3470
2023-06-11T11:05:08.589Z,47.3230
2023-06-11T11:06:10.644Z,47.3050
2023-06-11T11:07:12.897Z,47.2540
2023-06-11T11:08:18.850Z,47.2930
2023-06-11T11:09:17.284Z,47.3070
2023-06-11T11:10:19.445Z,47.3110
2023-06-11T11:11:21.635Z,47.3290
2023-06-11T11:12:23.902Z,47.3470
2023-06-11T11:13:26.152Z,47.3070
2023-06-11T11:14:28.321Z,47.3010
2023-06-11T11:15:30.601Z,47.2260
2023-06-11T11:16:32.793Z,47.2140
2023-06-11T11:17:35.053Z,47.2600
2023-06-11T11:18:37.236Z,47.2600
2023-06-11T11:19:37.374Z,47.2360
2023-06-11T11:20:39.576Z,47.1690
2023-06-11T11:21:41.831Z,47.1890
2023-06-11T11:22:44.051Z,47.2320
2023-06-11T11:23:46.258Z,47.2260
2023-06-11T11:24:48.440Z,47.2580
2023-06-11T11:25:50.694Z,47.2580
2023-06-11T11:26:52.922Z,47.2380
2023-06-11T11:27:55.162Z,47.2500
2023-06-11T11:28:57.368Z,47.2540
2023-06-11T11:30:01.542Z,47.2790
2023-06-11T11:30:59.814Z,47.2950
2023-06-11T11:32:02.029Z,47.2930
2023-06-11T11:33:04.252Z,47.2540
2023-06-11T11:34:06.567Z,47.2420
2023-06-11T11:35:08.679Z,47.2720
2023-06-11T11:36:10.932Z,47.2300
2023-06-11T11:37:13.181Z,47.2040
2023-06-11T11:38:15.481Z,47.2180
2023-06-11T11:39:17.715Z,47.2130
2023-06-11T11:40:19.985Z,47.2240
2023-06-11T11:41:20.064Z,47.1990
2023-06-11T11:42:22.321Z,47.1870
2023-06-11T11:43:24.635Z,47.1870
2023-06-11T11:44:26.801Z,47.1990
2023-06-11T11:45:29.040Z,47.1800
2023-06-11T11:46:31.338Z,47.1300
2023-06-11T11:47:33.568Z,47.1680
2023-06-11T11:48:35.930Z,47.1620
2023-06-11T11:49:38.021Z,47.1680
2023-06-11T11:50:40.223Z,47.1640
2023-06-11T11:51:40.282Z,47.1720
2023-06-11T11:52:42.441Z,47.1280
2023-06-11T11:53:44.660Z,47.1400
2023-06-11T11:54:46.862Z,47.1520
2023-06-11T11:56:49.124Z,47.1840
2023-06-11T11:57:51.281Z,47.2030
2023-06-11T11:58:53.525Z,47.1380
2023-06-11T11:59:55.748Z,47.1680
2023-06-11T12:00:58.017Z,47.1930
2023-06-11T12:02:00.174Z,47.1620
2023-06-11T12:03:02.401Z,47.1500
2023-06-11T12:04:04.621Z,47.1280
2023-06-11T12:05:06.743Z,47.1090
2023-06-11T12:06:06.824Z,47.1150
2023-06-11T12:07:09.046Z,47.1030
2023-06-11T12:08:11.254Z,47.1050
2023-06-11T12:09:13.526Z,47.0870
2023-06-11T12:10:15.797Z,47.0810
2023-06-11T12:11:17.951Z,47.1120
2023-06-11T12:12:20.179Z,47.0690
2023-06-11T12:13:22.410Z,47.0610
2023-06-11T12:14:24.684Z,47.0550
2023-06-11T12:15:26.856Z,47.0610
2023-06-11T12:16:29.123Z,47.0770
2023-06-11T12:17:31.473Z,47.0410
2023-06-11T12:18:31.425Z,47.0530
2023-06-11T12:19:33.637Z,47.0350
2023-06-11T12:20:35.753Z,47.0470
2023-06-11T12:21:37.899Z,47.0270
2023-06-11T12:22:40.049Z,47.0200
2023-06-11T12:23:42.187Z,47.0350
2023-06-11T12:24:44.514Z,47.0350
2023-06-11T12:25:46.512Z,46.9960
2023-06-11T12:26:48.735Z,46.9780
2023-06-11T12:27:50.950Z,46.9840
2023-06-11T12:28:53.179Z,46.9720
2023-06-11T12:29:55.406Z,46.9900
2023-06-11T12:30:57.568Z,46.9780
2023-06-11T12:31:59.856Z,46.9720
2023-06-11T12:33:02.142Z,47.0020
2023-06-11T12:34:04.175Z,46.9840
2023-06-11T12:35:04.255Z,46.9620